To NAV CANADA Home Page Login to a new session Search on AWWS site Feedback and Comments Disclaimer Vers la page française équivalente Tips FAQ What's new on the site To the Forecasts and Observations / NOTAM section To "File a Flight Plan" website Publications and other links Update of the User's profile FIC Telephone Numbers My Weather Data Folder Route Weather Data Regional Weather Data Local Weather Data To the Forecasts and Observations / NOTAM section
Request Generated 06/26/2017 at 03:45:04 UTC . Weather information available at that time is displayed.


Go to a specific product

Save this request

NOTAM

NOTAM


SIGMET
To the Product Selector

SIGMETS GFACN32

WSCN32 CWEG 260157
SIGMET B2 VALID 260155/260455 CWEG-
CZEG EDMONTON FIR CNCL SIGMET B1 260055/260455
RMK GFACN32 GFACN31 GFACN35
END/WSCN22/CWAO

WSCN32 CWEG 260230
SIGMET D2 VALID 260230/260630 CWEG-
CZEG EDMONTON FIR FRQ TSGR OBS WTN 30 NM OF LINE /N6034 W12419/30 NW CYJF -
/N5854 W12058/45 E CYYE - /N5645 W12049/30 N CYXJ TOP FL420 MOV ENE 15KT NC
RMK GFACN32 GFACN31 GFACN35
END/WSCN22/CWAO



AIRMET
To the Product Selector

AIRMETS GFACN32

GFACN32 - No AIRMET bulletins in effect



PIREP
To the Product Selector

FIR_WINNIPEG (WG)

WG - PIREP not available



METAR/TAF
To the Product Selector

REGINA INTL/SK    

METAR CYQR 260300Z 04007KT 15SM FEW250 15/03 A3026 RMK CI1 CI TR
SLP257 DENSITY ALT 2000FT=
METAR CYQR 260200Z 03010KT 15SM FEW060 FEW280 17/02 A3024 RMK SC1CI1
SC TR CI TR SLP252 DENSITY ALT 2300FT=
METAR CYQR 260100Z 01009KT 360V060 15SM FEW064 FEW280 19/03 A3024 RMK
SC1CI1 SC TR SLP251 DENSITY ALT 2500FT=

TAF CYQR 252338Z 2600/2624 33012KT P6SM SCT070 TEMPO 2600/2604 BKN070
FM260800 12008KT P6SM SKC
BECMG 2616/2618 18015G25KT
RMK NXT FCST BY 260600Z=

MOOSE JAW/AIR VICE MARSHAL C.M. MCEWEN/SK    

CYMJ - METAR not available

*** REMARK        : Forecast period has ended; this was the last TAF issued
*** REMARQUE : La période de prévision est échue; ceci était le dernier TAF qui a été émis
TAF AMD CYMJ 240035Z 2400/2412 FCST CNCLD DUE END OF FLYING PROGRAM
RMK NXT FCST WILL BE ISSUED AT 261115Z=


RADAR PCPN RATE
To the Product Selector
Pacific Canada      Western Canada     

SATELLITE VISIBLE
To the Product Selector
West Canada      

SATELLITE INFRARED
To the Product Selector
West Canada     

GRAPHICAL FA CLOUDS & WEATHER FORECASTS
To the Product Selector
Graphical FA gfacn32      

GRAPHICAL FA ICING, TURBULENCE & FREEZING LEVEL FORECASTS
To the Product Selector
Graphical FA gfacn32      

FDTEXT Low Level FD. Temperatures are not forecast for the 3,000-foot level.
To the Product Selector
STN YQR - REGINA. SASK for use 3000 6000 9000 12000 18000
FDCN01 CWAO FCST BASED ON 260000 DATA VALID 260600 05-09 9900+07 3115+00 3318-05 3433-16
FDCN02 CWAO FCST BASED ON 260000 DATA VALID 261200 09-18 2006+07 3205+03 3315-02 3429-15
FDCN03 CWAO FCST BASED ON 260000 DATA VALID 270000 18-05 1923+13 2512+09 3218+03 3040-11



Your time UTC time
Weather data provided by Environment Canada and NAV CANADA